Time;durP1;ratioP1;P1;durP2;ratioP2;P2;SDS_P1;SDS_P2;PMS_P1;PMS_P2;Temp;Humidity;BMP_temperature;BMP_pressure;BME280_temperature;BME280_humidity;BME280_pressure;Samples;Min_cycle;Max_cycle;Signal;HPM_P1;HPM_P2
2023/09/19 00:01:52;;;;;;;2.45;1.20;;;;;;;;;;5028490;28;20466;-76
2023/09/19 00:04:28;;;;;;;2.72;1.50;;;;;;;;;;5026130;28;20526;-77
2023/09/19 00:07:02;;;;;;;5.13;1.30;;;;;;;;;;5045826;28;20591;-77
2023/09/19 00:09:30;;;;;;;1.80;1.30;;;;;;;;;;5026662;28;20440;-76
2023/09/19 00:11:57;;;;;;;1.60;1.30;;;;;;;;;;5020827;28;20488;-77
2023/09/19 00:14:26;;;;;;;3.97;1.60;;;;;;;;;;5043013;28;20507;-77
2023/09/19 00:16:55;;;;;;;2.90;1.25;;;;;;;;;;5027592;28;20522;-77
2023/09/19 00:19:23;;;;;;;1.70;1.13;;;;;;;;;;5029703;28;20443;-77
2023/09/19 00:21:53;;;;;;;1.60;1.27;;;;;;;;;;5044316;28;20431;-77
2023/09/19 00:24:20;;;;;;;2.80;1.25;;;;;;;;;;5026176;28;20431;-77
2023/09/19 00:26:47;;;;;;;2.28;1.50;;;;;;;;;;5030681;28;20439;-77
2023/09/19 00:29:16;;;;;;;3.47;1.50;;;;;;;;;;5026454;28;20439;-77
2023/09/19 00:31:46;;;;;;;3.55;1.58;;;;;;;;;;5044619;28;20438;-77
2023/09/19 00:34:14;;;;;;;2.38;1.27;;;;;;;;;;5031236;28;20531;-77
2023/09/19 00:36:43;;;;;;;2.55;1.55;;;;;;;;;;5045215;28;20439;-77
2023/09/19 00:39:10;;;;;;;3.17;1.33;;;;;;;;;;5028784;28;20427;-77
2023/09/19 00:41:38;;;;;;;2.47;1.08;;;;;;;;;;5029418;28;20512;-77
2023/09/19 00:44:05;;;;;;;1.77;1.30;;;;;;;;;;5045135;28;20463;-77
2023/09/19 00:46:33;;;;;;;2.28;1.13;;;;;;;;;;5034148;28;21139;-77
2023/09/19 00:49:10;;;;;;;2.25;1.33;;;;;;;;;;5025254;28;20466;-77
2023/09/19 00:51:45;;;;;;;2.03;1.40;;;;;;;;;;5019849;28;20775;-77
2023/09/19 00:54:17;;;;;;;1.58;1.48;;;;;;;;;;5028130;28;20573;-77
2023/09/19 00:56:45;;;;;;;3.10;1.50;;;;;;;;;;5042150;28;20897;-77
2023/09/19 00:59:13;;;;;;;3.38;1.50;;;;;;;;;;5025243;28;20434;-77
2023/09/19 01:01:40;;;;;;;2.72;1.40;;;;;;;;;;5044271;28;20458;-76
2023/09/19 01:04:07;;;;;;;2.77;1.60;;;;;;;;;;5027819;28;20434;-77
2023/09/19 02:12:39;;;;;;;3.22;1.80;;;;;;;;;;5023550;28;20783;-76
2023/09/19 02:15:07;;;;;;;2.20;1.70;;;;;;;;;;5034879;28;20465;-76
2023/09/19 02:17:34;;;;;;;1.70;1.60;;;;;;;;;;5018813;28;20430;-76
2023/09/19 02:20:09;;;;;;;2.58;1.90;;;;;;;;;;5034957;28;21377;-76
2023/09/19 02:22:38;;;;;;;2.03;1.92;;;;;;;;;;5020406;28;21212;-76
2023/09/19 02:25:07;;;;;;;2.45;2.03;;;;;;;;;;5027483;28;20477;-76
2023/09/19 02:27:34;;;;;;;2.60;2.00;;;;;;;;;;5025181;28;20849;-77
2023/09/19 02:30:06;;;;;;;2.50;2.30;;;;;;;;;;5027729;28;20822;-77
2023/09/19 02:32:36;;;;;;;2.58;1.88;;;;;;;;;;5024864;28;20961;-76
2023/09/19 02:35:04;;;;;;;2.00;1.90;;;;;;;;;;5033196;28;20504;-77
2023/09/19 02:37:32;;;;;;;2.38;2.17;;;;;;;;;;5026881;28;20824;-76
2023/09/19 02:40:00;;;;;;;2.78;2.22;;;;;;;;;;5028086;28;20435;-76
2023/09/19 02:42:27;;;;;;;5.07;2.00;;;;;;;;;;5039479;28;20601;-76
2023/09/19 02:44:56;;;;;;;2.38;2.05;;;;;;;;;;5040369;28;20435;-76
2023/09/19 02:47:24;;;;;;;3.90;2.08;;;;;;;;;;5021461;28;20439;-76
2023/09/19 02:49:51;;;;;;;2.67;2.47;;;;;;;;;;5037418;28;20444;-76
2023/09/19 02:52:19;;;;;;;2.00;1.90;;;;;;;;;;5041398;28;20533;-76
2023/09/19 02:54:46;;;;;;;2.28;2.15;;;;;;;;;;5022805;28;20457;-76
2023/09/19 02:57:14;;;;;;;2.78;2.00;;;;;;;;;;5022035;28;20518;-76
2023/09/19 02:59:42;;;;;;;5.20;2.22;;;;;;;;;;5026874;28;20462;-76
2023/09/19 03:02:09;;;;;;;2.20;2.00;;;;;;;;;;5026586;28;20771;-76
2023/09/19 03:04:37;;;;;;;2.95;1.90;;;;;;;;;;5040094;28;22174;-77
2023/09/19 03:07:07;;;;;;;2.42;2.22;;;;;;;;;;5022589;28;20866;-76
2023/09/19 03:09:34;;;;;;;3.67;2.13;;;;;;;;;;5026886;28;20443;-76
2023/09/19 03:12:01;;;;;;;3.10;2.20;;;;;;;;;;5028227;28;20497;-76
2023/09/19 03:14:30;;;;;;;4.83;1.97;;;;;;;;;;5040134;28;20517;-77
2023/09/19 03:17:05;;;;;;;2.55;1.90;;;;;;;;;;5024888;28;20446;-76
2023/09/19 03:19:33;;;;;;;1.80;1.70;;;;;;;;;;5022491;28;20426;-77
2023/09/19 03:22:03;;;;;;;3.17;1.75;;;;;;;;;;5040524;28;20450;-76
2023/09/19 03:24:31;;;;;;;3.47;1.73;;;;;;;;;;5023511;28;20510;-76
2023/09/19 03:26:58;;;;;;;2.78;1.73;;;;;;;;;;5043080;28;20439;-76
2023/09/19 03:29:26;;;;;;;3.30;1.85;;;;;;;;;;5040962;28;20423;-77
2023/09/19 03:31:54;;;;;;;3.20;2.03;;;;;;;;;;5025869;28;20426;-77
2023/09/19 03:34:21;;;;;;;2.65;1.85;;;;;;;;;;5022985;28;20961;-77
2023/09/19 03:36:48;;;;;;;2.95;1.75;;;;;;;;;;5025592;28;20475;-76
2023/09/19 03:39:16;;;;;;;1.70;1.60;;;;;;;;;;5028524;28;20434;-76
2023/09/19 03:41:43;;;;;;;2.13;1.60;;;;;;;;;;5031509;28;20441;-76
2023/09/19 03:44:10;;;;;;;2.20;1.70;;;;;;;;;;5045548;28;20441;-77
2023/09/19 03:46:40;;;;;;;5.18;1.65;;;;;;;;;;5031756;28;20427;-76
2023/09/19 03:49:10;;;;;;;2.88;1.60;;;;;;;;;;5030081;28;20439;-77
2023/09/19 03:51:37;;;;;;;4.68;1.95;;;;;;;;;;5046658;28;20549;-77
2023/09/19 03:54:05;;;;;;;3.00;1.73;;;;;;;;;;5031582;28;20442;-76
2023/09/19 03:56:32;;;;;;;3.70;2.30;;;;;;;;;;5044010;28;20467;-76
2023/09/19 03:58:59;;;;;;;2.53;1.83;;;;;;;;;;5030508;28;20896;-76
2023/09/19 04:01:27;;;;;;;3.17;1.92;;;;;;;;;;5045763;28;21365;-77
2023/09/19 04:03:55;;;;;;;6.25;2.20;;;;;;;;;;5031193;28;20426;-77
2023/09/19 04:06:22;;;;;;;3.60;2.10;;;;;;;;;;5030242;28;20897;-77
2023/09/19 04:08:49;;;;;;;3.15;2.10;;;;;;;;;;5031025;28;20532;-77
2023/09/19 04:11:17;;;;;;;2.58;2.33;;;;;;;;;;5029999;28;20450;-76
2023/09/19 04:13:44;;;;;;;4.40;2.60;;;;;;;;;;5028591;28;20888;-76
2023/09/19 04:16:12;;;;;;;4.22;2.40;;;;;;;;;;5031648;28;20434;-77
2023/09/19 04:18:39;;;;;;;2.63;2.38;;;;;;;;;;5029453;28;20925;-77
2023/09/19 04:21:09;;;;;;;2.10;2.00;;;;;;;;;;5029245;28;20908;-77
2023/09/19 04:23:36;;;;;;;3.20;2.08;;;;;;;;;;5030282;28;20435;-77
2023/09/19 04:26:04;;;;;;;3.28;1.75;;;;;;;;;;5030067;28;20512;-77
2023/09/19 04:28:38;;;;;;;2.70;1.77;;;;;;;;;;5030606;28;20435;-77
2023/09/19 04:31:07;;;;;;;1.50;1.40;;;;;;;;;;5040634;28;20437;-76
2023/09/19 04:33:35;;;;;;;1.75;1.65;;;;;;;;;;5029857;28;20443;-76
2023/09/19 04:36:03;;;;;;;1.80;1.70;;;;;;;;;;5041159;28;21124;-76
2023/09/19 04:38:51;;;;;;;2.25;1.95;;;;;;;;;;5037558;28;20435;-76
2023/09/19 04:41:22;;;;;;;2.00;1.65;;;;;;;;;;5030560;28;20430;-76
2023/09/19 04:43:50;;;;;;;2.00;1.65;;;;;;;;;;5043191;28;20454;-76
2023/09/19 04:46:20;;;;;;;2.33;1.92;;;;;;;;;;5038471;28;20431;-77
2023/09/19 04:48:47;;;;;;;1.95;1.80;;;;;;;;;;5023250;28;20458;-76
2023/09/19 04:51:15;;;;;;;2.53;1.80;;;;;;;;;;5030090;28;20434;-76
2023/09/19 04:53:42;;;;;;;2.28;1.88;;;;;;;;;;5027857;28;20442;-76
2023/09/19 04:56:09;;;;;;;2.40;1.65;;;;;;;;;;5028065;28;20522;-76
2023/09/19 04:58:39;;;;;;;3.95;1.98;;;;;;;;;;5037674;28;20512;-76
2023/09/19 05:01:11;;;;;;;2.40;1.75;;;;;;;;;;5029164;28;20443;-76
2023/09/19 05:03:38;;;;;;;2.95;1.92;;;;;;;;;;5027453;28;20436;-76
2023/09/19 05:06:06;;;;;;;2.80;1.67;;;;;;;;;;5021734;28;20431;-76
2023/09/19 05:08:33;;;;;;;2.83;1.50;;;;;;;;;;5042880;28;21087;-76
2023/09/19 05:11:02;;;;;;;1.77;1.60;;;;;;;;;;5018951;28;20439;-76
2023/09/19 05:13:30;;;;;;;2.03;1.50;;;;;;;;;;5044428;28;20462;-76
2023/09/19 05:16:03;;;;;;;4.20;1.65;;;;;;;;;;5041308;28;20763;-76
2023/09/19 05:18:31;;;;;;;1.90;1.50;;;;;;;;;;5028876;28;20439;-76
2023/09/19 05:20:59;;;;;;;3.30;1.65;;;;;;;;;;5042491;28;20435;-76
2023/09/19 05:23:27;;;;;;;2.35;1.63;;;;;;;;;;5029183;28;20434;-76
2023/09/19 05:25:56;;;;;;;1.85;1.50;;;;;;;;;;5045303;28;20513;-76
2023/09/19 05:28:23;;;;;;;2.53;1.80;;;;;;;;;;5027345;28;20466;-76
2023/09/19 05:30:51;;;;;;;2.43;1.90;;;;;;;;;;5034496;28;20444;-76
2023/09/19 05:33:18;;;;;;;5.77;2.07;;;;;;;;;;5021369;28;20502;-77
2023/09/19 05:35:47;;;;;;;5.15;2.20;;;;;;;;;;5027964;28;20488;-76
2023/09/19 05:38:18;;;;;;;4.00;2.45;;;;;;;;;;5040532;28;20442;-77
2023/09/19 05:40:46;;;;;;;3.00;2.53;;;;;;;;;;5028100;28;20435;-76
2023/09/19 05:43:17;;;;;;;3.25;2.90;;;;;;;;;;5044230;28;20514;-76
2023/09/19 05:45:56;;;;;;;3.40;3.00;;;;;;;;;;5022222;28;20430;-76
2023/09/19 05:48:23;;;;;;;6.07;3.20;;;;;;;;;;5035781;28;20467;-77
2023/09/19 05:50:51;;;;;;;3.42;2.75;;;;;;;;;;5044041;28;20446;-76
2023/09/19 05:53:23;;;;;;;4.50;2.97;;;;;;;;;;5026165;28;20466;-77
2023/09/19 05:55:50;;;;;;;4.00;3.20;;;;;;;;;;5029520;28;20443;-76
2023/09/19 05:58:18;;;;;;;5.35;3.17;;;;;;;;;;5044246;28;20596;-76
2023/09/19 06:00:49;;;;;;;4.32;3.08;;;;;;;;;;5042231;28;20447;-76
2023/09/19 06:03:17;;;;;;;4.10;2.70;;;;;;;;;;5028721;28;20793;-78
2023/09/19 06:05:46;;;;;;;3.65;2.90;;;;;;;;;;5019110;28;21449;-77
2023/09/19 06:08:13;;;;;;;2.90;2.60;;;;;;;;;;5021559;28;20952;-78
2023/09/19 06:10:40;;;;;;;3.70;3.03;;;;;;;;;;5042359;28;20450;-77
2023/09/19 06:13:09;;;;;;;3.78;2.78;;;;;;;;;;5025727;28;20808;-77
2023/09/19 06:15:37;;;;;;;3.17;2.65;;;;;;;;;;5023429;28;20451;-78
2023/09/19 06:18:05;;;;;;;3.30;2.70;;;;;;;;;;5042959;28;20912;-78
2023/09/19 06:20:33;;;;;;;2.77;2.57;;;;;;;;;;5027935;28;20449;-78
2023/09/19 06:23:02;;;;;;;5.50;2.90;;;;;;;;;;5027438;28;20522;-78
2023/09/19 06:25:29;;;;;;;3.78;2.65;;;;;;;;;;5027794;28;20459;-78
2023/09/19 06:27:59;;;;;;;2.60;2.40;;;;;;;;;;5028300;28;21120;-78
2023/09/19 06:30:29;;;;;;;2.60;2.27;;;;;;;;;;5027044;28;20431;-78
2023/09/19 06:33:00;;;;;;;2.90;2.60;;;;;;;;;;5028416;28;20510;-77
2023/09/19 06:35:29;;;;;;;2.15;1.95;;;;;;;;;;5037103;28;20438;-76
2023/09/19 06:37:58;;;;;;;5.03;2.08;;;;;;;;;;5037143;28;20589;-78
2023/09/19 06:40:27;;;;;;;3.20;1.95;;;;;;;;;;5043381;28;20496;-78
2023/09/19 06:42:58;;;;;;;2.25;1.75;;;;;;;;;;5023801;28;20466;-78
2023/09/19 06:45:26;;;;;;;3.05;1.60;;;;;;;;;;5043614;28;20438;-78
2023/09/19 06:47:57;;;;;;;2.53;1.80;;;;;;;;;;5027074;28;20805;-78
2023/09/19 06:50:25;;;;;;;3.42;1.90;;;;;;;;;;5028465;28;20506;-76
2023/09/19 06:52:54;;;;;;;3.17;1.70;;;;;;;;;;5028073;28;20431;-76
2023/09/19 06:55:27;;;;;;;3.00;1.85;;;;;;;;;;5044040;28;20434;-76
2023/09/19 06:57:59;;;;;;;4.43;1.80;;;;;;;;;;5016495;28;20438;-75
2023/09/19 07:00:28;;;;;;;3.03;1.73;;;;;;;;;;5037545;28;20438;-76
2023/09/19 07:02:57;;;;;;;3.47;1.80;;;;;;;;;;5019025;28;20431;-76
2023/09/19 07:05:24;;;;;;;3.30;2.00;;;;;;;;;;5029349;28;20799;-76
2023/09/19 07:07:51;;;;;;;3.92;1.70;;;;;;;;;;5027560;28;21022;-76
2023/09/19 07:10:20;;;;;;;2.20;1.95;;;;;;;;;;5043738;28;20435;-76
2023/09/19 07:12:47;;;;;;;2.72;1.90;;;;;;;;;;5031966;28;20426;-76
2023/09/19 07:15:14;;;;;;;2.58;1.52;;;;;;;;;;5031279;28;20526;-76
2023/09/19 07:17:45;;;;;;;3.78;1.85;;;;;;;;;;5029936;28;20440;-76
2023/09/19 07:20:16;;;;;;;2.72;1.70;;;;;;;;;;5030923;28;20450;-76
2023/09/19 07:22:47;;;;;;;3.03;1.55;;;;;;;;;;5026470;28;20781;-76
2023/09/19 07:25:15;;;;;;;5.63;1.67;;;;;;;;;;5026393;28;20427;-76
2023/09/19 07:27:42;;;;;;;1.80;1.30;;;;;;;;;;5027334;28;20439;-76
2023/09/19 07:30:11;;;;;;;3.63;1.08;;;;;;;;;;5030826;28;20518;-76
2023/09/19 07:32:40;;;;;;;2.85;1.35;;;;;;;;;;5030582;28;20604;-76
2023/09/19 07:35:12;;;;;;;2.22;1.30;;;;;;;;;;5031610;28;20438;-76
2023/09/19 07:37:39;;;;;;;1.88;1.02;;;;;;;;;;5040872;28;20500;-75
2023/09/19 07:40:09;;;;;;;2.65;1.48;;;;;;;;;;5042202;28;20467;-76
2023/09/19 07:42:39;;;;;;;3.10;1.30;;;;;;;;;;5039574;28;20517;-76
2023/09/19 07:45:07;;;;;;;2.57;1.30;;;;;;;;;;5038101;28;20456;-76
2023/09/19 07:47:36;;;;;;;2.13;1.20;;;;;;;;;;5030792;28;20427;-76
2023/09/19 07:50:03;;;;;;;2.80;1.30;;;;;;;;;;5044157;28;20543;-76
2023/09/19 07:52:33;;;;;;;2.70;1.30;;;;;;;;;;5046381;28;20422;-77
2023/09/19 07:55:01;;;;;;;6.47;1.27;;;;;;;;;;5028694;28;20966;-76
2023/09/19 07:57:29;;;;;;;2.80;1.30;;;;;;;;;;5030740;28;20458;-76
2023/09/19 07:59:57;;;;;;;2.03;1.23;;;;;;;;;;5023342;28;20520;-76
2023/09/19 08:02:24;;;;;;;2.80;1.35;;;;;;;;;;5038231;28;20431;-75
2023/09/19 08:04:53;;;;;;;2.53;1.10;;;;;;;;;;5025364;28;20522;-75
2023/09/19 08:07:23;;;;;;;5.03;1.23;;;;;;;;;;5040882;28;20443;-76
2023/09/19 08:09:52;;;;;;;2.67;1.13;;;;;;;;;;5021991;28;20563;-76
2023/09/19 08:12:24;;;;;;;2.13;1.20;;;;;;;;;;5017826;28;20432;-75
2023/09/19 08:14:51;;;;;;;2.70;1.40;;;;;;;;;;5028636;28;20509;-76
2023/09/19 08:17:24;;;;;;;2.88;1.38;;;;;;;;;;5045844;28;20437;-76
2023/09/19 08:19:52;;;;;;;3.10;1.20;;;;;;;;;;5028267;28;20956;-75
2023/09/19 08:22:21;;;;;;;2.73;0.90;;;;;;;;;;5039507;28;20432;-75
2023/09/19 08:24:48;;;;;;;1.60;1.10;;;;;;;;;;5025096;28;20920;-77
2023/09/19 08:27:18;;;;;;;2.95;1.23;;;;;;;;;;5025839;28;20435;-75
2023/09/19 08:29:46;;;;;;;4.13;1.45;;;;;;;;;;5028784;28;20469;-75
2023/09/19 08:32:14;;;;;;;1.60;1.10;;;;;;;;;;5045166;28;20441;-75
2023/09/19 08:34:41;;;;;;;2.47;1.30;;;;;;;;;;5045169;28;20435;-76
2023/09/19 08:37:11;;;;;;;2.97;1.10;;;;;;;;;;5023851;28;20442;-75
2023/09/19 08:39:39;;;;;;;3.63;1.38;;;;;;;;;;5027390;28;20525;-75
2023/09/19 08:42:07;;;;;;;4.82;1.30;;;;;;;;;;5045305;28;20976;-76
2023/09/19 08:44:40;;;;;;;2.97;1.17;;;;;;;;;;5029087;28;20790;-75
2023/09/19 08:47:11;;;;;;;3.13;1.40;;;;;;;;;;5029094;28;20904;-78
2023/09/19 08:49:48;;;;;;;4.50;1.20;;;;;;;;;;5028201;28;20489;-77
2023/09/19 08:52:26;;;;;;;2.50;1.30;;;;;;;;;;5029631;28;20442;-78
2023/09/19 08:54:57;;;;;;;3.28;1.27;;;;;;;;;;5022406;28;20459;-76
2023/09/19 08:57:29;;;;;;;3.63;1.10;;;;;;;;;;5030178;28;20446;-75
2023/09/19 08:59:58;;;;;;;1.67;1.30;;;;;;;;;;5023791;28;20518;-75
2023/09/19 09:02:25;;;;;;;3.40;1.30;;;;;;;;;;5025035;28;20938;-75
2023/09/19 09:04:53;;;;;;;2.85;1.30;;;;;;;;;;5035527;28;20478;-75
2023/09/19 09:07:22;;;;;;;5.28;1.30;;;;;;;;;;5029645;28;20442;-75
2023/09/19 09:09:49;;;;;;;2.40;1.15;;;;;;;;;;5044125;28;20767;-75
2023/09/19 09:12:17;;;;;;;2.88;1.20;;;;;;;;;;5048183;28;20442;-75
2023/09/19 09:14:53;;;;;;;4.07;1.33;;;;;;;;;;5024799;28;20431;-75
2023/09/19 09:17:20;;;;;;;5.40;1.30;;;;;;;;;;5025507;28;20464;-78
2023/09/19 09:19:54;;;;;;;3.08;1.35;;;;;;;;;;5027007;28;20501;-75
2023/09/19 09:22:25;;;;;;;4.55;1.35;;;;;;;;;;5026905;28;20435;-75
2023/09/19 09:25:01;;;;;;;4.38;1.40;;;;;;;;;;5025633;28;20435;-75
2023/09/19 09:27:28;;;;;;;5.45;1.40;;;;;;;;;;5045227;28;20488;-75
2023/09/19 09:29:55;;;;;;;4.87;1.30;;;;;;;;;;5026736;28;20445;-76
2023/09/19 09:32:33;;;;;;;4.03;1.00;;;;;;;;;;5027718;28;20466;-76
2023/09/19 09:35:01;;;;;;;4.30;1.50;;;;;;;;;;5026133;28;20434;-75
2023/09/19 09:37:30;;;;;;;4.57;1.40;;;;;;;;;;5027709;28;20557;-76
2023/09/19 09:42:47;;;;;;;5.68;1.42;;;;;;;;;;5043195;28;20457;-76
2023/09/19 09:45:17;;;;;;;3.88;1.23;;;;;;;;;;5058593;28;20433;-77
2023/09/19 09:47:57;;;;;;;3.58;1.75;;;;;;;;;;5050214;28;20423;-78
2023/09/19 09:53:25;;;;;;;3.28;1.30;;;;;;;;;;5050906;28;20502;-77
2023/09/19 09:56:07;;;;;;;5.20;1.30;;;;;;;;;;5028659;28;20431;-77
2023/09/19 09:58:35;;;;;;;1.73;1.20;;;;;;;;;;5030050;28;20431;-77
2023/09/19 10:01:08;;;;;;;4.15;1.55;;;;;;;;;;5017541;28;20435;-76
2023/09/19 10:03:40;;;;;;;3.47;1.33;;;;;;;;;;5028969;28;20431;-76
2023/09/19 10:06:25;;;;;;;3.90;1.55;;;;;;;;;;5026291;28;20620;-77
2023/09/19 10:09:19;;;;;;;5.85;1.50;;;;;;;;;;5023224;28;20423;-77
2023/09/19 10:12:02;;;;;;;3.50;1.40;;;;;;;;;;5024733;28;21032;-75
2023/09/19 10:14:33;;;;;;;3.58;1.30;;;;;;;;;;5043464;28;20777;-75
2023/09/19 10:17:05;;;;;;;3.60;1.63;;;;;;;;;;5029061;28;20477;-75
2023/09/19 10:19:46;;;;;;;3.67;1.60;;;;;;;;;;5029341;28;20793;-75
2023/09/19 10:22:16;;;;;;;4.15;1.40;;;;;;;;;;5027554;28;20489;-75
2023/09/19 10:24:44;;;;;;;6.60;1.73;;;;;;;;;;5028712;28;20431;-77
2023/09/19 10:27:29;;;;;;;2.65;1.50;;;;;;;;;;5033533;28;20565;-76
2023/09/19 10:29:59;;;;;;;4.63;1.70;;;;;;;;;;5028269;28;20529;-75
2023/09/19 10:32:28;;;;;;;4.10;1.33;;;;;;;;;;5027348;28;20461;-76
2023/09/19 10:34:56;;;;;;;5.10;1.42;;;;;;;;;;5027859;28;20520;-75
2023/09/19 10:37:25;;;;;;;4.78;1.35;;;;;;;;;;5037627;28;20441;-76
2023/09/19 10:39:57;;;;;;;1.92;1.23;;;;;;;;;;5039085;28;20453;-76
2023/09/19 10:42:28;;;;;;;4.18;1.55;;;;;;;;;;5038697;28;20441;-75
2023/09/19 10:44:59;;;;;;;3.72;1.98;;;;;;;;;;5029777;28;20433;-77
2023/09/19 10:47:30;;;;;;;5.70;1.57;;;;;;;;;;5024640;28;20530;-75
2023/09/19 10:49:58;;;;;;;6.25;1.85;;;;;;;;;;5029983;28;20434;-76
2023/09/19 10:52:26;;;;;;;3.40;1.40;;;;;;;;;;5043989;28;20795;-75
2023/09/19 10:54:59;;;;;;;10.23;1.60;;;;;;;;;;5028937;28;20500;-76
2023/09/19 10:57:30;;;;;;;4.68;1.65;;;;;;;;;;5041268;28;20527;-76
2023/09/19 11:03:11;;;;;;;3.92;1.60;;;;;;;;;;5029039;28;20795;-76
2023/09/19 11:05:40;;;;;;;4.80;1.70;;;;;;;;;;5025356;28;20913;-75
2023/09/19 11:08:08;;;;;;;3.15;1.20;;;;;;;;;;5025077;28;20437;-75
2023/09/19 11:10:46;;;;;;;4.63;1.60;;;;;;;;;;5029245;28;20542;-76
2023/09/19 11:13:34;;;;;;;6.80;1.70;;;;;;;;;;5035846;28;20436;-76
2023/09/19 11:16:01;;;;;;;4.25;1.42;;;;;;;;;;5030094;28;20440;-76
2023/09/19 11:18:41;;;;;;;5.20;1.35;;;;;;;;;;5046060;28;20434;-76
2023/09/19 11:21:30;;;;;;;3.97;1.60;;;;;;;;;;5025936;28;20528;-76
2023/09/19 11:24:22;;;;;;;4.13;1.60;;;;;;;;;;5020614;28;20942;-75
2023/09/19 11:26:50;;;;;;;3.00;1.23;;;;;;;;;;5041860;28;20902;-76
2023/09/19 11:29:31;;;;;;;3.58;1.60;;;;;;;;;;5045389;28;20426;-76
2023/09/19 11:32:00;;;;;;;3.97;1.50;;;;;;;;;;5029420;28;20530;-76
2023/09/19 11:34:50;;;;;;;3.25;1.10;;;;;;;;;;5025311;28;20768;-75
2023/09/19 11:37:20;;;;;;;3.30;1.48;;;;;;;;;;5025611;28;20519;-76
2023/09/19 11:40:13;;;;;;;2.03;1.30;;;;;;;;;;5034909;28;20436;-77
2023/09/19 11:42:50;;;;;;;3.75;1.30;;;;;;;;;;5044116;28;20454;-76
2023/09/19 11:45:35;;;;;;;5.53;1.33;;;;;;;;;;5030565;28;20448;-76
2023/09/19 11:48:03;;;;;;;2.97;1.25;;;;;;;;;;5030698;28;20431;-76
2023/09/19 11:50:32;;;;;;;4.50;1.77;;;;;;;;;;5030446;28;20439;-76
2023/09/19 11:52:59;;;;;;;3.33;1.42;;;;;;;;;;5043720;28;20435;-76
2023/09/19 11:55:32;;;;;;;2.90;1.30;;;;;;;;;;5024522;28;20437;-77
2023/09/19 11:58:07;;;;;;;3.72;1.30;;;;;;;;;;5028086;28;20539;-77
2023/09/19 12:00:43;;;;;;;6.22;1.30;;;;;;;;;;5042767;28;20500;-77
2023/09/19 12:03:11;;;;;;;2.10;1.20;;;;;;;;;;5022919;28;20926;-77
2023/09/19 12:05:39;;;;;;;2.78;1.30;;;;;;;;;;5029377;28;20905;-76
2023/09/19 12:08:08;;;;;;;4.82;1.38;;;;;;;;;;5042232;28;20445;-77
2023/09/19 12:10:56;;;;;;;3.85;1.15;;;;;;;;;;5030191;28;20441;-77
2023/09/19 12:13:24;;;;;;;1.20;1.02;;;;;;;;;;5020482;28;20965;-77
2023/09/19 12:15:51;;;;;;;2.47;1.15;;;;;;;;;;5030261;28;20609;-77
2023/09/19 12:18:28;;;;;;;4.47;1.30;;;;;;;;;;5026629;28;20515;-76
2023/09/19 12:20:57;;;;;;;5.07;1.20;;;;;;;;;;5022756;28;20427;-77
2023/09/19 12:23:27;;;;;;;3.90;1.30;;;;;;;;;;5045402;28;20509;-77
2023/09/19 12:25:59;;;;;;;2.50;1.10;;;;;;;;;;5028085;28;20507;-77
2023/09/19 12:28:28;;;;;;;2.53;1.10;;;;;;;;;;5043378;28;20466;-76
2023/09/19 12:30:55;;;;;;;4.78;1.20;;;;;;;;;;5027211;28;20430;-77
2023/09/19 12:33:25;;;;;;;2.63;1.23;;;;;;;;;;5030480;28;20427;-78
2023/09/19 12:35:55;;;;;;;2.67;1.00;;;;;;;;;;5028302;28;20439;-76
2023/09/19 12:38:31;;;;;;;3.47;1.40;;;;;;;;;;5030565;28;20461;-76
2023/09/19 12:41:00;;;;;;;1.95;1.20;;;;;;;;;;5029189;28;20920;-78
2023/09/19 12:43:32;;;;;;;4.00;1.10;;;;;;;;;;5029679;28;20487;-77
2023/09/19 12:46:00;;;;;;;3.35;1.20;;;;;;;;;;5026795;28;20430;-77
2023/09/19 12:48:31;;;;;;;2.10;1.10;;;;;;;;;;5028272;28;20473;-77
2023/09/19 12:51:07;;;;;;;2.70;1.23;;;;;;;;;;5022451;28;20440;-76
2023/09/19 12:53:48;;;;;;;4.72;1.38;;;;;;;;;;5028385;28;20434;-77
2023/09/19 12:56:16;;;;;;;4.18;1.10;;;;;;;;;;5035163;28;20523;-76
2023/09/19 12:58:50;;;;;;;2.58;1.00;;;;;;;;;;5028086;28;20470;-77
2023/09/19 13:01:17;;;;;;;2.95;1.20;;;;;;;;;;5028392;28;20489;-76
2023/09/19 13:03:45;;;;;;;2.17;1.10;;;;;;;;;;5041036;28;20485;-77
2023/09/19 13:06:16;;;;;;;3.13;1.30;;;;;;;;;;5021807;28;20440;-77
2023/09/19 13:08:49;;;;;;;4.80;1.02;;;;;;;;;;5029178;28;20541;-77
2023/09/19 13:11:20;;;;;;;2.17;1.00;;;;;;;;;;5028600;28;20435;-77
2023/09/19 13:14:08;;;;;;;693.92;538.28;;;;;;;;;;5044279;28;20470;-77
2023/09/19 13:16:53;;;;;;;1026.72;909.83;;;;;;;;;;5035089;28;20439;-77
2023/09/19 13:19:45;;;;;;;941.00;853.67;;;;;;;;;;5043671;28;20466;-77
2023/09/19 13:22:42;;;;;;;1020.80;884.40;;;;;;;;;;5023850;28;20438;-77
2023/09/19 13:25:14;;;;;;;1042.22;925.88;;;;;;;;;;5024164;28;20993;-78
2023/09/19 13:27:44;;;;;;;1031.03;917.17;;;;;;;;;;5042692;28;20435;-76
2023/09/19 13:30:12;;;;;;;1014.67;859.78;;;;;;;;;;5027891;28;20828;-77
2023/09/19 13:32:40;;;;;;;1041.88;905.80;;;;;;;;;;5022831;28;20525;-76
2023/09/19 13:35:12;;;;;;;1004.42;850.05;;;;;;;;;;5025406;28;20912;-75
2023/09/19 13:37:42;;;;;;;952.97;786.58;;;;;;;;;;5027884;28;20446;-76
2023/09/19 13:40:11;;;;;;;938.78;766.97;;;;;;;;;;5036813;28;20465;-77
2023/09/19 13:42:38;;;;;;;927.45;744.22;;;;;;;;;;5037407;28;20437;-77
2023/09/19 13:45:06;;;;;;;924.60;756.07;;;;;;;;;;5025702;28;21147;-77
2023/09/19 13:47:33;;;;;;;910.75;726.78;;;;;;;;;;5022650;28;20439;-77
2023/09/19 13:50:04;;;;;;;933.60;772.10;;;;;;;;;;5026736;28;20480;-77
2023/09/19 13:52:32;;;;;;;932.17;773.15;;;;;;;;;;5043914;28;20426;-77
2023/09/19 13:55:01;;;;;;;147.15;132.13;;;;;;;;;;5027944;28;20462;-77
2023/09/19 13:57:29;;;;;;;93.75;87.13;;;;;;;;;;5027591;28;20844;-77
2023/09/19 13:59:56;;;;;;;1033.63;889.38;;;;;;;;;;5025493;28;20535;-76
2023/09/19 14:02:24;;;;;;;1.33;0.90;;;;;;;;;;5043085;28;21108;-76
2023/09/19 14:04:52;;;;;;;1.10;1.00;;;;;;;;;;5024444;28;20445;-76
2023/09/19 14:07:20;;;;;;;3.65;1.52;;;;;;;;;;5042519;28;20519;-77
2023/09/19 14:09:47;;;;;;;1.80;0.90;;;;;;;;;;5023439;28;20836;-77
2023/09/19 14:12:15;;;;;;;2.10;0.82;;;;;;;;;;5021207;28;20458;-77
2023/09/19 14:14:43;;;;;;;2.33;0.82;;;;;;;;;;5029589;28;20415;-77
2023/09/19 14:17:10;;;;;;;3.47;0.90;;;;;;;;;;5027457;28;20433;-76
2023/09/19 14:19:38;;;;;;;3.20;0.90;;;;;;;;;;5014437;28;20428;-77
2023/09/19 14:22:07;;;;;;;1.50;0.70;;;;;;;;;;5019150;28;20435;-78
2023/09/19 14:24:38;;;;;;;1.92;0.80;;;;;;;;;;5020842;28;20439;-77
2023/09/19 14:27:14;;;;;;;2.63;1.00;;;;;;;;;;5026518;28;20517;-77
2023/09/19 14:29:44;;;;;;;2.05;0.75;;;;;;;;;;5027729;28;20453;-76
2023/09/19 14:32:12;;;;;;;1.10;0.80;;;;;;;;;;5025728;28;20905;-77
2023/09/19 14:34:42;;;;;;;1.75;0.80;;;;;;;;;;5044146;28;20439;-76
2023/09/19 14:37:11;;;;;;;1.95;1.00;;;;;;;;;;5043635;28;21305;-77
2023/09/19 14:39:44;;;;;;;1.38;0.63;;;;;;;;;;5026827;28;21162;-77
2023/09/19 14:42:14;;;;;;;1.10;0.75;;;;;;;;;;5042727;28;20441;-77
2023/09/19 14:44:44;;;;;;;2.80;1.30;;;;;;;;;;5027683;28;20985;-76
2023/09/19 14:47:13;;;;;;;1.63;1.10;;;;;;;;;;5019469;28;20434;-76
2023/09/19 14:49:40;;;;;;;0.90;0.88;;;;;;;;;;5020171;28;20510;-77
2023/09/19 14:52:08;;;;;;;0.95;0.77;;;;;;;;;;5025088;28;20435;-77
2023/09/19 14:54:37;;;;;;;2.90;0.90;;;;;;;;;;5020105;28;20468;-77
2023/09/19 14:57:05;;;;;;;2.10;0.77;;;;;;;;;;5025094;28;20430;-77
2023/09/19 14:59:37;;;;;;;1.05;0.80;;;;;;;;;;5038804;28;20522;-77
2023/09/19 15:02:04;;;;;;;16.53;15.23;;;;;;;;;;5024508;28;20548;-77
2023/09/19 15:04:34;;;;;;;806.95;731.13;;;;;;;;;;5023370;28;20488;-77
2023/09/19 15:07:02;;;;;;;38.30;34.73;;;;;;;;;;5026082;28;20904;-76
2023/09/19 15:09:33;;;;;;;1.33;0.90;;;;;;;;;;5026918;28;20797;-79
2023/09/19 15:12:00;;;;;;;68.28;61.53;;;;;;;;;;5041082;28;20885;-77
2023/09/19 15:14:30;;;;;;;695.60;633.47;;;;;;;;;;5009792;28;20826;-77
2023/09/19 15:16:57;;;;;;;958.00;871.57;;;;;;;;;;5027135;28;20469;-77
2023/09/19 15:19:24;;;;;;;1040.40;913.17;;;;;;;;;;5027067;28;20509;-77
2023/09/19 15:21:54;;;;;;;1.10;0.73;;;;;;;;;;5021876;28;20435;-77
2023/09/19 15:24:23;;;;;;;1.33;0.80;;;;;;;;;;5042793;28;20435;-77
2023/09/19 15:26:50;;;;;;;246.07;222.50;;;;;;;;;;5028050;28;20441;-77
2023/09/19 15:29:20;;;;;;;1.40;0.90;;;;;;;;;;5020342;28;20434;-77
2023/09/19 15:31:47;;;;;;;1.20;0.77;;;;;;;;;;5019856;28;20455;-78
2023/09/19 15:34:15;;;;;;;1.35;0.80;;;;;;;;;;5021083;28;20470;-76
2023/09/19 15:36:46;;;;;;;5.80;5.30;;;;;;;;;;5030154;28;20446;-78
2023/09/19 15:39:15;;;;;;;5.18;3.10;;;;;;;;;;5046486;28;20453;-77
2023/09/19 15:41:49;;;;;;;443.00;404.33;;;;;;;;;;5030226;28;20439;-76
2023/09/19 15:44:20;;;;;;;337.17;308.75;;;;;;;;;;5030302;28;20831;-75
2023/09/19 15:46:48;;;;;;;548.37;499.87;;;;;;;;;;5030179;28;20439;-75
2023/09/19 15:49:15;;;;;;;1031.10;931.47;;;;;;;;;;5028796;28;21118;-76
2023/09/19 15:51:43;;;;;;;639.53;581.33;;;;;;;;;;5026193;28;20598;-78
2023/09/19 15:54:14;;;;;;;885.60;796.75;;;;;;;;;;5027930;28;20439;-77
2023/09/19 15:56:46;;;;;;;588.33;532.92;;;;;;;;;;5045697;28;20485;-78
2023/09/19 15:59:14;;;;;;;367.33;334.35;;;;;;;;;;5025878;28;20790;-77
2023/09/19 16:01:42;;;;;;;1.00;0.60;;;;;;;;;;5029857;28;20445;-77
2023/09/19 16:04:14;;;;;;;1.60;0.80;;;;;;;;;;5027135;28;20431;-76
2023/09/19 16:06:41;;;;;;;1.20;0.55;;;;;;;;;;5021003;28;20823;-77
2023/09/19 16:09:11;;;;;;;0.93;0.70;;;;;;;;;;5038017;28;20518;-76
2023/09/19 16:11:40;;;;;;;0.77;0.70;;;;;;;;;;5030887;28;20455;-76